Sama, Spain
Current Conditions -  °F | °C
As of 7:30 PM on Monday 26 Jan 2015 (Local Time) from LEAS Reporting Station
Scattered Clouds Scattered Clouds  
Wind Chill: 45°   Ceiling: Unl
Heat Index: 48°   Visibility: 6mi
Dew Point: 41°   Wind: 7mph
Humidity: 76%   Direction: 230°SW
Pressure: 30.53"   Gusts: NA
Location:  43.3°N, 5.68°W
Report Text: LEAS 261830Z 23006KT 9999 FEW025 SCT030 09/05 Q1034 NOSIG
Loading
Personal Weather Stations






























Interactive Weather Map New forecast layout! Learn more

10-Day Weather Forecast

Advertisements
Track Severe Weather on mobile